ENHV/HVG METAR and TAF weather

Enter ICAO airport designator
Station Type Date Time Source
ENHV METAR 2019/05/24 20:50 UTC NOAA

ENHV 242050Z VRB02KT FEW019 BKN032 03/M02 Q1010


Station Type Date Time Source
ENHV Decoded METAR 2019/05/24 20:50 UTC NOAA

Honningsvag / Valan, Norway (ENHV) 71-01N 025-59E 14M
May 24, 2019 - 04:50 PM EDT / 2019.05.24 2050 UTC
Wind: Variable at 2 MPH (2 KT):0
Sky conditions: mostly cloudy
Temperature: 37 F (3 C)
Dew Point: 28 F (-2 C)
Relative Humidity: 69%
Pressure (altimeter): 29.83 in. Hg (1010 hPa)
ob: ENHV 242050Z VRB02KT FEW019 BKN032 03/M02 Q1010
cycle: 21

Station Type Date Time Source
ENHV TAF UTC NOAA

Error!

Example: see airport list